createdAt,value
2022-10-26T00:02:02.142Z,6.00
2022-10-26T00:07:07.841Z,5.57
2022-10-26T00:12:13.294Z,5.30
2022-10-26T00:17:18.832Z,5.90
2022-10-26T00:22:24.654Z,5.93
2022-10-26T00:27:30.174Z,5.37
2022-10-26T00:32:36.383Z,5.67
2022-10-26T00:37:42.012Z,5.70
2022-10-26T00:42:47.790Z,6.03
2022-10-26T00:47:57.820Z,6.10
2022-10-26T00:53:06.139Z,6.90
2022-10-26T00:58:12.955Z,7.80
2022-10-26T01:03:18.962Z,6.43
2022-10-26T01:08:25.787Z,7.10
2022-10-26T01:13:35.965Z,6.33
2022-10-26T01:19:11.580Z,6.37
2022-10-26T01:24:37.406Z,7.03
2022-10-26T01:29:51.909Z,5.67
2022-10-26T01:35:03.216Z,6.37
2022-10-26T01:40:17.477Z,6.57
2022-10-26T01:45:23.336Z,6.90
2022-10-26T01:50:30.122Z,6.87
2022-10-26T01:55:42.005Z,7.37
2022-10-26T02:00:50.450Z,6.13
2022-10-26T02:06:04.214Z,6.77
2022-10-26T02:11:24.631Z,7.83
2022-10-26T02:16:33.048Z,6.07
2022-10-26T02:21:44.480Z,7.23
2022-10-26T02:26:53.399Z,7.27
2022-10-26T02:31:59.322Z,7.27
2022-10-26T02:37:07.652Z,7.33
2022-10-26T02:42:14.688Z,7.37
2022-10-26T02:47:22.596Z,7.70
2022-10-26T02:52:33.742Z,6.73
2022-10-26T02:57:42.741Z,7.53
2022-10-26T03:02:58.730Z,6.50
2022-10-26T03:08:04.665Z,7.90
2022-10-26T03:13:11.155Z,6.93
2022-10-26T03:18:16.617Z,6.33
2022-10-26T03:23:22.086Z,6.80
2022-10-26T03:28:27.613Z,6.97
2022-10-26T03:33:33.127Z,7.30
2022-10-26T03:38:38.690Z,6.27
2022-10-26T03:43:44.074Z,6.53
2022-10-26T03:48:49.608Z,6.73
2022-10-26T03:53:55.143Z,7.10
2022-10-26T03:59:00.783Z,7.33
2022-10-26T04:04:06.515Z,7.57
2022-10-26T04:09:12.314Z,9.43
2022-10-26T04:14:17.782Z,8.13
2022-10-26T04:19:23.284Z,7.57
2022-10-26T04:24:28.817Z,7.87
2022-10-26T04:29:34.360Z,7.27
2022-10-26T04:34:39.803Z,7.40
2022-10-26T04:39:45.478Z,8.53
2022-10-26T04:44:50.979Z,7.97
2022-10-26T04:49:56.368Z,7.30
2022-10-26T04:55:02.188Z,7.80
2022-10-26T05:00:08.378Z,7.70
2022-10-26T05:05:15.170Z,7.30
2022-10-26T05:10:20.870Z,8.83
2022-10-26T05:15:26.800Z,8.57
2022-10-26T05:20:34.621Z,9.00
2022-10-26T05:25:40.614Z,9.20
2022-10-26T05:30:47.342Z,9.37
2022-10-26T05:35:57.203Z,9.53
2022-10-26T05:41:02.728Z,10.27
2022-10-26T05:46:08.124Z,9.37
2022-10-26T05:51:14.441Z,9.67
2022-10-26T05:56:37.021Z,9.47
2022-10-26T06:02:09.820Z,9.17
2022-10-26T06:07:22.978Z,8.80
2022-10-26T06:12:29.320Z,9.60
2022-10-26T06:17:54.280Z,8.53
2022-10-26T06:23:04.355Z,8.77
2022-10-26T06:28:49.930Z,9.43
2022-10-26T06:33:56.816Z,9.60
2022-10-26T06:39:11.604Z,10.23
2022-10-26T06:44:23.776Z,9.57
2022-10-26T06:49:41.007Z,9.57
2022-10-26T06:54:55.828Z,8.87
2022-10-26T07:00:10.047Z,9.40
2022-10-26T07:05:15.776Z,8.97
2022-10-26T07:10:21.263Z,9.87
2022-10-26T07:15:26.799Z,8.50
2022-10-26T07:20:32.861Z,8.83
2022-10-26T07:25:40.655Z,8.00
2022-10-26T07:30:46.316Z,8.30
2022-10-26T07:35:53.037Z,7.20
2022-10-26T07:40:58.493Z,8.13
2022-10-26T07:46:04.029Z,8.10
2022-10-26T07:51:09.632Z,7.77
2022-10-26T07:56:15.299Z,6.90
2022-10-26T08:01:21.846Z,7.47
2022-10-26T08:06:27.372Z,6.50
2022-10-26T08:11:32.967Z,6.53
2022-10-26T08:16:40.729Z,6.50
2022-10-26T08:21:47.258Z,7.23
2022-10-26T08:26:52.929Z,6.57
2022-10-26T08:31:58.391Z,6.40
2022-10-26T08:37:03.988Z,6.77
2022-10-26T08:42:15.299Z,6.53
2022-10-26T08:47:26.788Z,6.83
2022-10-26T08:52:41.062Z,6.57
2022-10-26T08:57:49.593Z,6.40
2022-10-26T09:02:55.667Z,6.30
2022-10-26T09:08:10.133Z,5.23
2022-10-26T09:13:47.360Z,5.67
2022-10-26T09:18:57.761Z,5.50
2022-10-26T09:24:35.669Z,5.10
2022-10-26T09:29:43.812Z,4.07
2022-10-26T09:34:55.211Z,4.60
2022-10-26T09:40:12.064Z,4.50
2022-10-26T09:45:23.408Z,4.13
2022-10-26T09:50:37.351Z,4.30
2022-10-26T09:55:52.266Z,4.30
2022-10-26T10:00:58.813Z,3.57
2022-10-26T10:06:18.858Z,4.63
2022-10-26T10:11:26.112Z,4.97
2022-10-26T10:16:32.129Z,5.13
2022-10-26T10:21:40.555Z,4.70
2022-10-26T10:27:07.192Z,4.67
2022-10-26T10:32:24.058Z,4.73
2022-10-26T10:37:38.839Z,4.73
2022-10-26T10:42:47.717Z,4.03
2022-10-26T10:48:15.813Z,4.23
2022-10-26T10:53:33.216Z,4.90
2022-10-26T10:58:47.388Z,4.53
2022-10-26T11:04:02.486Z,4.20
2022-10-26T11:09:14.208Z,4.07
2022-10-26T11:14:25.689Z,3.17
2022-10-26T11:19:40.189Z,3.23
2022-10-26T11:24:57.227Z,2.80
2022-10-26T11:30:08.686Z,3.10
2022-10-26T11:35:24.605Z,2.37
2022-10-26T11:40:48.179Z,3.17
2022-10-26T11:46:02.488Z,2.93
2022-10-26T11:51:10.896Z,2.13
2022-10-26T11:56:21.905Z,2.13
2022-10-26T12:01:29.484Z,2.37
2022-10-26T12:06:36.472Z,2.20
2022-10-26T12:11:45.477Z,2.63
2022-10-26T12:16:59.906Z,2.73
2022-10-26T12:22:06.429Z,2.30
2022-10-26T12:27:31.135Z,2.70
2022-10-26T12:32:43.710Z,2.67
2022-10-26T12:37:48.686Z,2.47
2022-10-26T12:42:54.559Z,2.43
2022-10-26T12:48:10.865Z,2.33
2022-10-26T12:53:15.070Z,1.97
2022-10-26T12:58:23.844Z,2.40
2022-10-26T13:03:48.759Z,2.30
2022-10-26T13:08:58.828Z,2.63
2022-10-26T13:14:07.461Z,2.47
2022-10-26T13:19:23.910Z,2.33
2022-10-26T13:24:32.577Z,2.80
2022-10-26T13:30:07.241Z,3.70
2022-10-26T13:35:16.934Z,3.13
2022-10-26T13:40:28.250Z,3.17
2022-10-26T13:45:36.304Z,5.12
2022-10-26T13:50:50.584Z,3.53
2022-10-26T13:56:08.645Z,4.07
2022-10-26T14:01:36.928Z,3.00
2022-10-26T14:06:44.130Z,3.50
2022-10-26T14:11:52.563Z,3.30
2022-10-26T14:16:59.277Z,3.10
2022-10-26T14:22:05.602Z,2.83
2022-10-26T14:27:22.589Z,3.27
2022-10-26T14:32:33.986Z,3.40
2022-10-26T14:37:48.919Z,2.83
2022-10-26T14:42:57.455Z,3.17
2022-10-26T14:48:05.124Z,2.70
2022-10-26T14:53:18.185Z,2.47
2022-10-26T15:03:34.975Z,2.83
2022-10-26T15:08:56.864Z,2.93
2022-10-26T15:13:57.463Z,2.80
2022-10-26T15:19:09.123Z,3.57
2022-10-26T15:24:39.959Z,3.27
2022-10-26T15:29:51.237Z,3.30
2022-10-26T15:35:18.421Z,3.97
2022-10-26T15:45:35.995Z,3.03
2022-10-26T15:50:41.901Z,3.13
2022-10-26T15:55:47.745Z,2.90
2022-10-26T16:00:53.455Z,3.90
2022-10-26T16:06:02.509Z,2.73
2022-10-26T16:11:08.265Z,3.00
2022-10-26T16:16:18.298Z,2.83
2022-10-26T16:21:26.022Z,2.97
2022-10-26T16:26:31.558Z,3.23
2022-10-26T16:31:37.191Z,2.90
2022-10-26T16:36:42.810Z,2.90
2022-10-26T16:41:50.876Z,3.00
2022-10-26T16:46:56.351Z,3.23
2022-10-26T16:52:01.831Z,3.10
2022-10-26T16:57:07.352Z,3.23
2022-10-26T17:02:15.799Z,2.60
2022-10-26T17:07:21.209Z,3.10
2022-10-26T17:17:32.818Z,3.00
2022-10-26T17:22:38.280Z,2.90
2022-10-26T17:27:46.506Z,2.90
2022-10-26T17:32:52.446Z,3.33
2022-10-26T17:37:58.188Z,3.03
2022-10-26T17:43:03.727Z,2.73
2022-10-26T17:48:09.331Z,3.40
2022-10-26T17:53:14.887Z,3.07
2022-10-26T17:58:21.156Z,2.67
2022-10-26T18:03:26.608Z,3.03
2022-10-26T18:08:33.632Z,2.80
2022-10-26T18:13:39.169Z,3.63
2022-10-26T18:18:52.495Z,2.80
2022-10-26T18:23:58.026Z,2.90
2022-10-26T18:29:04.665Z,3.33
2022-10-26T18:34:11.927Z,3.10
2022-10-26T18:39:17.333Z,3.60
2022-10-26T18:44:22.955Z,2.73
2022-10-26T18:49:29.211Z,3.33
2022-10-26T18:54:34.752Z,3.17
2022-10-26T18:59:40.387Z,3.37
2022-10-26T19:04:45.870Z,3.00
2022-10-26T19:09:51.399Z,3.00
2022-10-26T19:14:56.805Z,3.10
2022-10-26T19:20:02.269Z,3.40
2022-10-26T19:25:09.021Z,6.23
2022-10-26T19:30:16.000Z,5.60
2022-10-26T19:35:21.614Z,5.33
2022-10-26T19:40:26.991Z,7.57
2022-10-26T19:45:32.710Z,6.37
2022-10-26T19:50:38.232Z,3.90
2022-10-26T19:55:47.388Z,3.73
2022-10-26T20:06:05.968Z,3.40
2022-10-26T20:11:15.545Z,5.23
2022-10-26T20:16:20.070Z,5.97
2022-10-26T20:21:25.552Z,4.83
2022-10-26T20:26:31.084Z,5.80
2022-10-26T20:31:36.455Z,5.33
2022-10-26T20:36:41.919Z,7.00
2022-10-26T20:41:49.296Z,5.43
2022-10-26T20:46:55.387Z,5.40
2022-10-26T20:52:20.255Z,4.70
2022-10-26T20:57:14.073Z,5.13
2022-10-26T21:02:21.234Z,6.77
2022-10-26T21:07:26.796Z,7.57
2022-10-26T21:12:32.364Z,8.60
2022-10-26T21:17:37.868Z,8.60
2022-10-26T21:22:43.311Z,9.43
2022-10-26T21:27:49.211Z,9.17
2022-10-26T21:38:00.790Z,8.57
2022-10-26T21:43:06.353Z,9.47
2022-10-26T21:48:11.815Z,9.30
2022-10-26T21:53:17.666Z,8.87
2022-10-26T21:58:23.131Z,7.13
2022-10-26T22:03:28.648Z,7.10
2022-10-26T22:08:35.200Z,7.40
2022-10-26T22:13:40.888Z,6.90
2022-10-26T22:18:47.412Z,6.67
2022-10-26T22:23:53.137Z,8.03
2022-10-26T22:28:58.865Z,8.33
2022-10-26T22:34:07.909Z,8.03
2022-10-26T22:39:14.001Z,8.67
2022-10-26T22:44:19.562Z,8.53
2022-10-26T22:49:25.174Z,9.50
2022-10-26T22:54:30.646Z,9.30
2022-10-26T22:59:36.176Z,10.47
2022-10-26T23:04:41.751Z,9.43
2022-10-26T23:09:47.247Z,10.60
2022-10-26T23:14:52.801Z,8.37
2022-10-26T23:19:58.277Z,7.47
2022-10-26T23:25:03.833Z,8.17
2022-10-26T23:30:10.539Z,6.20
2022-10-26T23:35:16.066Z,6.70
2022-10-26T23:40:21.718Z,5.90
2022-10-26T23:45:27.294Z,5.93
2022-10-26T23:50:32.821Z,5.30
2022-10-26T23:55:38.644Z,6.43
